createdAt,value
2022-10-17T00:04:06.431Z,11.93
2022-10-17T00:19:48.593Z,12.06
2022-10-17T00:35:30.971Z,12.13
2022-10-17T00:51:13.869Z,11.96
2022-10-17T01:06:56.089Z,11.87
2022-10-17T01:22:38.563Z,12.01
2022-10-17T01:38:20.783Z,11.89
2022-10-17T01:54:02.935Z,11.77
2022-10-17T02:09:45.186Z,11.57
2022-10-17T02:25:28.092Z,11.44
2022-10-17T02:41:10.940Z,11.4
2022-10-17T02:56:53.548Z,11.45
2022-10-17T03:12:36.175Z,11.53
2022-10-17T03:28:18.323Z,11.78
2022-10-17T03:44:00.761Z,12.14
2022-10-17T03:59:42.889Z,12.26
2022-10-17T04:15:25.410Z,12.24
2022-10-17T04:31:08.178Z,12.16
2022-10-17T04:46:50.980Z,12.11
2022-10-17T05:02:33.550Z,12.04
2022-10-17T05:18:16.479Z,12
2022-10-17T05:33:58.999Z,11.9
2022-10-17T05:49:42.039Z,11.89
2022-10-17T06:05:24.766Z,11.96
2022-10-17T06:21:07.270Z,12.21
2022-10-17T06:36:49.710Z,12.53
2022-10-17T06:52:32.580Z,12.95
2022-10-17T07:08:14.714Z,13.34
2022-10-17T07:23:57.408Z,13.9
2022-10-17T07:39:39.858Z,14.33
2022-10-17T07:55:22.751Z,14.85
2022-10-17T08:11:05.374Z,16.84
2022-10-17T08:26:47.493Z,19.25
2022-10-17T08:42:30.396Z,21.49
2022-10-17T08:58:13.035Z,23.29
2022-10-17T09:13:55.052Z,23.98
2022-10-17T09:29:37.630Z,23.83
2022-10-17T09:45:19.860Z,23.41
2022-10-17T10:01:02.542Z,24.14
2022-10-17T10:16:45.002Z,26.36
2022-10-17T10:32:27.430Z,26.07
2022-10-17T10:48:09.754Z,25.63
2022-10-17T11:03:52.525Z,26
2022-10-17T11:19:35.352Z,26.32
2022-10-17T11:35:17.652Z,27.2
2022-10-17T11:51:00.430Z,28.72
2022-10-17T12:06:42.687Z,30.16
2022-10-17T12:22:25.313Z,31.48
2022-10-17T12:38:08.177Z,32.63
2022-10-17T12:38:55.319Z,32.87
2022-10-17T12:54:38.074Z,33.95
2022-10-17T13:10:20.511Z,33.4
2022-10-17T13:26:03.087Z,32.91
2022-10-17T13:41:45.263Z,32.13
2022-10-17T13:57:27.939Z,31.82
2022-10-17T14:13:10.880Z,31.95
2022-10-17T14:28:53.456Z,32.49
2022-10-17T14:44:35.432Z,28.86
2022-10-17T15:00:18.149Z,26.75
2022-10-17T15:16:00.768Z,25.38
2022-10-17T15:31:42.992Z,24.42
2022-10-17T15:47:25.503Z,23.7
2022-10-17T16:03:07.648Z,22.81
2022-10-17T16:18:50.094Z,21.86
2022-10-17T16:34:32.697Z,21.06
2022-10-17T16:50:14.760Z,20.26
2022-10-17T17:05:56.810Z,19.59
2022-10-17T17:21:39.725Z,18.91
2022-10-17T17:53:04.405Z,18.02
2022-10-17T18:08:46.925Z,18.01
2022-10-17T18:24:29.607Z,17.7
2022-10-17T18:40:12.125Z,17.39
2022-10-17T18:55:54.859Z,17.18
2022-10-17T19:11:37.776Z,16.84
2022-10-17T19:27:20.355Z,16.5
2022-10-17T19:43:03.082Z,16.23
2022-10-17T19:58:45.601Z,16.15
2022-10-17T20:14:28.427Z,15.96
2022-10-17T20:30:10.481Z,15.59
2022-10-17T20:45:53.445Z,15.3
2022-10-17T21:01:36.099Z,15.05
2022-10-17T21:17:19.027Z,14.76
2022-10-17T21:33:01.142Z,14.48
2022-10-17T21:48:43.410Z,14.27
2022-10-17T22:04:26.426Z,14.07
2022-10-17T22:20:09.319Z,13.94
2022-10-17T22:35:52.348Z,13.89
2022-10-17T22:51:34.845Z,13.84
2022-10-17T23:07:17.655Z,13.75
2022-10-17T23:22:59.721Z,13.71
2022-10-17T23:38:42.518Z,13.8
2022-10-17T23:54:25.408Z,14.01
